SBCY/CGB METAR and TAF weather

Enter ICAO airport designator
Station Type Date Time Source
SBCY METAR 2019/02/20 17:00 UTC NOAA

SBCY 201700Z 31008KT 9999 SCT015 BKN100 34/25 Q1012


Station Type Date Time Source
SBCY Decoded METAR 2019/02/20 17:00 UTC NOAA

Cuiaba Aeroporto , Brazil (SBCY) 15-39S 056-06W 182M
Feb 20, 2019 - 12:00 PM EST / 2019.02.20 1700 UTC
Wind: from the NW (310 degrees) at 9 MPH (8 KT):0
Visibility: greater than 7 mile(s):0
Sky conditions: mostly cloudy
Temperature: 93 F (34 C)
Heat index: 106.7 F (41.5 C):1
Dew Point: 77 F (25 C)
Relative Humidity: 59%
Pressure (altimeter): 29.88 in. Hg (1012 hPa)
ob: SBCY 201700Z 31008KT 9999 SCT015 BKN100 34/25 Q1012
cycle: 17

Station Type Date Time Source
SBCY TAF 2019/02/20 18:54 UTC NOAA

TAF SBCY 201600Z 2018/2118 27008KT 9999 SCT020 TX33/2019Z TN24/2108Z
BECMG 2020/2022 18005KT SCT025
BECMG 2100/2102 CAVOK
BECMG 2105/2107 33003KT
BECMG 2112/2114 33005KT 9999 SCT015
BECMG 2115/2117 8000 SCT020 FEW025TCU
RMK PCQ


Example: see airport list